createdAt,value
2023-05-19T00:02:09.521Z,101264.72
2023-05-19T00:04:37.644Z,101261.25
2023-05-19T00:07:08.212Z,101265.06
2023-05-19T00:09:35.414Z,101264.44
2023-05-19T00:12:02.540Z,101262.03
2023-05-19T00:14:29.863Z,101261.31
2023-05-19T00:16:57.958Z,101262.25
2023-05-19T00:19:26.296Z,101257.00
2023-05-19T00:21:53.315Z,101258.19
2023-05-19T00:24:20.277Z,101260.91
2023-05-19T00:26:47.407Z,101255.03
2023-05-19T00:29:18.525Z,101258.81
2023-05-19T00:31:45.498Z,101258.00
2023-05-19T00:34:12.531Z,101263.75
2023-05-19T00:36:39.411Z,101267.34
2023-05-19T00:39:06.356Z,101258.03
2023-05-19T00:41:33.382Z,101258.97
2023-05-19T00:44:00.658Z,101260.00
2023-05-19T00:46:27.617Z,101260.56
2023-05-19T00:48:54.552Z,101254.50
2023-05-19T00:51:22.561Z,101255.78
2023-05-19T00:53:52.079Z,101259.56
2023-05-19T00:56:20.092Z,101254.53
2023-05-19T00:58:48.096Z,101256.63
2023-05-19T01:01:17.310Z,101257.16
2023-05-19T01:03:45.040Z,101260.22
2023-05-19T01:06:12.264Z,101246.59
2023-05-19T01:08:39.726Z,101247.66
2023-05-19T01:11:08.230Z,101253.00
2023-05-19T01:13:36.602Z,101244.72
2023-05-19T01:19:39.655Z,101235.63
2023-05-19T01:22:32.596Z,101226.44
2023-05-19T01:25:20.513Z,101232.69
2023-05-19T01:28:16.489Z,101236.38
2023-05-19T01:30:45.706Z,101231.38
2023-05-19T01:33:15.372Z,101241.19
2023-05-19T01:35:44.049Z,101237.09
2023-05-19T01:38:13.080Z,101246.22
2023-05-19T01:40:42.178Z,101238.66
2023-05-19T01:43:13.328Z,101237.09
2023-05-19T01:45:40.673Z,101239.72
2023-05-19T01:48:10.825Z,101245.25
2023-05-19T01:50:38.570Z,101244.00
2023-05-19T01:53:05.502Z,101242.81
2023-05-19T01:55:32.684Z,101240.09
2023-05-19T01:58:02.907Z,101249.63
2023-05-19T02:00:54.322Z,101248.69
2023-05-19T02:03:55.224Z,101246.06
2023-05-19T02:06:50.037Z,101253.00
2023-05-19T02:09:30.287Z,101249.41
2023-05-19T02:12:26.538Z,101245.31
2023-05-19T02:15:11.804Z,101253.16
2023-05-19T02:17:44.303Z,101250.53
2023-05-19T02:20:11.814Z,101250.09
2023-05-19T02:22:38.949Z,101248.41
2023-05-19T02:25:06.845Z,101246.75
2023-05-19T02:27:36.060Z,101253.03
2023-05-19T02:30:08.332Z,101247.34
2023-05-19T02:32:36.535Z,101249.25
2023-05-19T02:35:04.105Z,101254.88
2023-05-19T02:37:31.177Z,101251.34
2023-05-19T02:39:58.490Z,101249.66
2023-05-19T02:42:25.470Z,101244.13
2023-05-19T02:44:54.617Z,101250.28
2023-05-19T02:47:21.700Z,101247.66
2023-05-19T02:49:48.651Z,101245.16
2023-05-19T02:52:15.597Z,101243.69
2023-05-19T02:54:42.587Z,101244.16
2023-05-19T02:57:11.123Z,101246.38
2023-05-19T02:59:38.128Z,101246.56
2023-05-19T03:02:05.178Z,101235.47
2023-05-19T03:04:32.102Z,101241.63
2023-05-19T03:06:59.033Z,101239.84
2023-05-19T03:09:25.961Z,101234.63
2023-05-19T03:11:52.878Z,101239.22
2023-05-19T03:14:23.801Z,101234.94
2023-05-19T03:16:51.138Z,101238.69
2023-05-19T03:19:18.185Z,101241.28
2023-05-19T03:21:45.335Z,101234.47
2023-05-19T03:24:12.237Z,101244.94
2023-05-19T03:26:39.193Z,101237.19
2023-05-19T03:29:06.151Z,101245.78
2023-05-19T03:31:33.137Z,101238.13
2023-05-19T03:34:00.127Z,101247.72
2023-05-19T03:36:31.992Z,101250.66
2023-05-19T03:38:59.466Z,101244.78
2023-05-19T03:41:26.449Z,101248.22
2023-05-19T03:43:53.363Z,101252.53
2023-05-19T03:46:23.234Z,101254.94
2023-05-19T03:48:52.650Z,101254.75
2023-05-19T03:51:19.608Z,101253.59
2023-05-19T03:53:47.003Z,101252.88
2023-05-19T03:56:14.134Z,101254.75
2023-05-19T03:58:44.422Z,101253.06
2023-05-19T04:01:11.956Z,101254.00
2023-05-19T04:03:38.916Z,101254.53
2023-05-19T04:06:06.507Z,101252.53
2023-05-19T04:08:33.512Z,101256.81
2023-05-19T04:11:00.345Z,101254.00
2023-05-19T04:13:27.382Z,101249.69
2023-05-19T04:15:54.383Z,101253.63
2023-05-19T04:18:21.425Z,101254.38
2023-05-19T04:20:48.883Z,101263.59
2023-05-19T04:23:19.547Z,101263.72
2023-05-19T04:25:48.701Z,101271.03
2023-05-19T04:28:16.186Z,101261.44
2023-05-19T04:30:43.056Z,101264.06
2023-05-19T04:33:10.040Z,101269.47
2023-05-19T04:35:38.165Z,101268.53
2023-05-19T04:38:05.619Z,101274.84
2023-05-19T04:40:32.897Z,101274.44
2023-05-19T04:43:01.894Z,101270.81
2023-05-19T04:45:28.858Z,101280.50
2023-05-19T04:47:58.024Z,101278.34
2023-05-19T04:50:25.318Z,101276.19
2023-05-19T04:52:52.261Z,101275.03
2023-05-19T04:55:19.668Z,101277.53
2023-05-19T04:57:46.932Z,101281.34
2023-05-19T05:00:14.449Z,101274.66
2023-05-19T05:02:42.927Z,101281.75
2023-05-19T05:05:10.145Z,101277.47
2023-05-19T05:07:37.153Z,101279.91
2023-05-19T05:10:04.841Z,101285.56
2023-05-19T05:12:32.721Z,101278.00
2023-05-19T05:15:00.253Z,101282.81
2023-05-19T05:17:28.253Z,101282.19
2023-05-19T05:19:55.519Z,101272.88
2023-05-19T05:22:22.754Z,101276.00
2023-05-19T05:24:50.024Z,101279.88
2023-05-19T05:27:16.947Z,101273.28
2023-05-19T05:29:44.039Z,101285.22
2023-05-19T05:32:11.049Z,101283.00
2023-05-19T05:34:39.798Z,101281.41
2023-05-19T05:37:06.903Z,101277.09
2023-05-19T05:39:33.827Z,101276.22
2023-05-19T05:42:01.006Z,101270.81
2023-05-19T05:44:28.009Z,101275.81
2023-05-19T05:46:55.417Z,101278.63
2023-05-19T05:49:22.772Z,101282.28
2023-05-19T05:52:04.331Z,101278.97
2023-05-19T05:54:33.430Z,101277.31
2023-05-19T05:57:00.701Z,101270.66
2023-05-19T05:59:27.644Z,101271.28
2023-05-19T06:01:54.589Z,101273.66
2023-05-19T06:04:21.546Z,101274.25
2023-05-19T06:06:48.486Z,101277.38
2023-05-19T06:09:15.414Z,101271.19
2023-05-19T06:11:42.329Z,101277.78
2023-05-19T06:14:09.359Z,101268.69
2023-05-19T06:16:36.551Z,101263.84
2023-05-19T06:19:03.584Z,101267.13
2023-05-19T06:21:30.767Z,101268.63
2023-05-19T06:23:57.739Z,101274.69
2023-05-19T06:26:24.622Z,101272.41
2023-05-19T06:28:52.210Z,101275.75
2023-05-19T06:31:19.150Z,101280.50
2023-05-19T06:33:46.205Z,101275.25
2023-05-19T06:36:14.008Z,101289.44
2023-05-19T06:38:40.933Z,101282.28
2023-05-19T06:41:08.033Z,101290.03
2023-05-19T06:43:34.964Z,101286.09
2023-05-19T06:46:01.897Z,101282.38
2023-05-19T06:48:28.908Z,101290.31
2023-05-19T06:50:56.420Z,101288.16
2023-05-19T06:53:23.303Z,101286.38
2023-05-19T06:55:58.793Z,101281.03
2023-05-19T06:58:27.129Z,101288.53
2023-05-19T07:00:54.201Z,101284.84
2023-05-19T07:03:21.334Z,101273.66
2023-05-19T07:05:48.374Z,101276.00
2023-05-19T07:08:15.253Z,101283.00
2023-05-19T07:10:42.177Z,101276.97
2023-05-19T07:13:09.129Z,101275.56
2023-05-19T07:15:36.098Z,101273.63
2023-05-19T07:18:03.070Z,101270.56
2023-05-19T07:20:30.171Z,101263.56
2023-05-19T07:22:57.231Z,101263.97
2023-05-19T07:25:24.124Z,101259.00
2023-05-19T07:27:51.050Z,101262.88
2023-05-19T07:30:18.025Z,101261.47
2023-05-19T07:32:44.959Z,101254.09
2023-05-19T07:35:11.898Z,101250.03
2023-05-19T07:37:38.753Z,101245.03
2023-05-19T07:40:07.626Z,101252.13
2023-05-19T07:42:35.014Z,101235.38
2023-05-19T07:45:03.285Z,101251.22
2023-05-19T07:47:31.156Z,101238.47
2023-05-19T07:49:58.083Z,101250.19
2023-05-19T07:52:25.006Z,101237.72
2023-05-19T07:54:51.963Z,101242.94
2023-05-19T07:57:20.159Z,101231.44
2023-05-19T07:59:47.118Z,101234.19
2023-05-19T08:02:14.096Z,101236.22
2023-05-19T08:04:41.313Z,101232.53
2023-05-19T08:07:08.288Z,101228.13
2023-05-19T08:09:35.333Z,101224.63
2023-05-19T08:12:02.315Z,101225.41
2023-05-19T08:14:29.285Z,101228.69
2023-05-19T08:16:56.302Z,101228.44
2023-05-19T08:19:23.342Z,101226.31
2023-05-19T08:21:50.351Z,101230.25
2023-05-19T08:24:17.273Z,101226.88
2023-05-19T08:26:44.511Z,101214.34
2023-05-19T08:29:11.363Z,101221.31
2023-05-19T08:31:38.305Z,101209.66
2023-05-19T08:34:05.265Z,101214.66
2023-05-19T08:36:33.721Z,101210.88
2023-05-19T08:39:00.807Z,101202.41
2023-05-19T08:41:27.712Z,101206.94
2023-05-19T08:43:55.113Z,101195.88
2023-05-19T08:46:25.293Z,101196.69
2023-05-19T08:48:59.259Z,101207.09
2023-05-19T08:51:50.754Z,101187.66
2023-05-19T08:54:18.669Z,101187.50
2023-05-19T08:56:46.488Z,101190.66
2023-05-19T08:59:17.314Z,101182.44
2023-05-19T09:01:46.419Z,101181.59
2023-05-19T09:04:14.024Z,101184.53
2023-05-19T09:06:41.158Z,101180.34
2023-05-19T09:09:08.647Z,101178.97
2023-05-19T09:11:38.452Z,101180.81
2023-05-19T09:14:05.873Z,101177.94
2023-05-19T09:16:33.854Z,101183.44
2023-05-19T09:19:01.207Z,101175.34
2023-05-19T09:21:32.574Z,101149.66
2023-05-19T09:24:08.343Z,101169.06
2023-05-19T09:26:40.626Z,101157.19
2023-05-19T09:29:17.842Z,101162.19
2023-05-19T09:31:54.349Z,101156.22
2023-05-19T09:34:23.650Z,101157.69
2023-05-19T09:36:51.870Z,101163.09
2023-05-19T09:39:21.238Z,101146.38
2023-05-19T09:41:53.723Z,101140.97
2023-05-19T09:44:20.984Z,101141.34
2023-05-19T09:46:50.304Z,101150.78
2023-05-19T09:49:29.473Z,101152.53
2023-05-19T09:51:58.010Z,101143.66
2023-05-19T09:54:27.419Z,101144.78
2023-05-19T09:57:12.658Z,101128.09
2023-05-19T09:59:41.045Z,101137.59
2023-05-19T10:02:18.004Z,101133.72
2023-05-19T10:04:46.557Z,101116.63
2023-05-19T10:07:15.859Z,101129.59
2023-05-19T10:09:43.841Z,101125.97
2023-05-19T10:12:12.321Z,101138.56
2023-05-19T10:14:41.396Z,101122.72
2023-05-19T10:17:09.299Z,101121.59
2023-05-19T10:19:37.342Z,101116.59
2023-05-19T10:22:04.458Z,101114.16
2023-05-19T10:24:31.456Z,101110.19
2023-05-19T10:27:04.973Z,101105.19
2023-05-19T10:29:38.019Z,101107.31
2023-05-19T10:32:17.893Z,101111.66
2023-05-19T10:35:18.630Z,101110.06
2023-05-19T10:38:15.724Z,101116.00
2023-05-19T10:41:14.206Z,101101.03
2023-05-19T10:44:06.809Z,101102.63
2023-05-19T10:46:33.792Z,101100.41
2023-05-19T10:49:00.706Z,101096.00
2023-05-19T10:51:34.624Z,101094.84
2023-05-19T10:54:14.500Z,101095.91
2023-05-19T10:56:47.234Z,101087.38
2023-05-19T10:59:40.717Z,101095.38
2023-05-19T11:02:08.966Z,101090.78
2023-05-19T11:04:54.291Z,101088.13
2023-05-19T11:07:22.318Z,101087.59
2023-05-19T11:09:52.846Z,101092.50
2023-05-19T11:12:25.360Z,101071.06
2023-05-19T11:14:56.047Z,101090.50
2023-05-19T11:17:25.540Z,101085.94
2023-05-19T11:19:57.506Z,101070.28
2023-05-19T11:22:27.792Z,101079.88
2023-05-19T11:24:58.204Z,101082.53
2023-05-19T11:27:33.705Z,101074.22
2023-05-19T11:30:05.306Z,101086.63
2023-05-19T11:32:34.951Z,101073.66
2023-05-19T11:35:03.346Z,101062.66
2023-05-19T11:37:32.889Z,101070.69
2023-05-19T11:40:02.877Z,101061.38
2023-05-19T11:42:29.852Z,101057.50
2023-05-19T11:44:57.032Z,101064.59
2023-05-19T11:47:24.071Z,101051.63
2023-05-19T11:49:57.641Z,101069.09
2023-05-19T11:52:25.581Z,101057.84
2023-05-19T11:54:52.606Z,101066.78
2023-05-19T11:57:20.161Z,101059.50
2023-05-19T11:59:49.639Z,101052.53
2023-05-19T12:02:22.717Z,101041.03
2023-05-19T12:04:50.600Z,101053.25
2023-05-19T12:07:20.553Z,101050.34
2023-05-19T12:09:48.521Z,101041.03
2023-05-19T12:12:22.241Z,101046.06
2023-05-19T12:14:51.881Z,101045.19
2023-05-19T12:17:21.056Z,101050.28
2023-05-19T12:19:49.497Z,101050.72
2023-05-19T12:22:19.877Z,101059.88
2023-05-19T12:24:47.821Z,101044.91
2023-05-19T12:27:20.747Z,101042.81
2023-05-19T12:29:52.883Z,101052.19
2023-05-19T12:32:25.412Z,101051.66
2023-05-19T12:34:53.485Z,101050.56
2023-05-19T12:37:20.473Z,101046.72
2023-05-19T12:39:50.979Z,101035.31
2023-05-19T12:42:18.002Z,101030.97
2023-05-19T12:44:48.010Z,101038.06
2023-05-19T12:47:16.306Z,101037.69
2023-05-19T12:50:07.822Z,101026.72
2023-05-19T12:52:46.630Z,101039.97
2023-05-19T12:55:19.708Z,101026.25
2023-05-19T12:57:56.891Z,101019.69
2023-05-19T13:00:28.418Z,101040.41
2023-05-19T13:03:07.623Z,101026.44
2023-05-19T13:05:43.562Z,101028.00
2023-05-19T13:08:20.080Z,101031.88
2023-05-19T13:10:49.124Z,101019.94
2023-05-19T13:13:16.604Z,101014.91
2023-05-19T13:15:45.899Z,101020.72
2023-05-19T13:18:13.899Z,101008.59
2023-05-19T13:20:43.276Z,101003.66
2023-05-19T13:23:12.049Z,101013.56
2023-05-19T13:25:39.464Z,101014.16
2023-05-19T13:28:06.663Z,101022.59
2023-05-19T13:30:39.434Z,101009.00
2023-05-19T13:33:06.966Z,101009.81
2023-05-19T13:35:37.153Z,101008.47
2023-05-19T13:38:11.974Z,101013.91
2023-05-19T13:40:39.655Z,101009.53
2023-05-19T13:43:07.911Z,101008.72
2023-05-19T13:45:35.059Z,101008.41
2023-05-19T13:48:02.264Z,101005.72
2023-05-19T13:50:29.317Z,101026.72
2023-05-19T13:52:56.290Z,101015.69
2023-05-19T13:55:23.588Z,101016.00
2023-05-19T13:57:50.851Z,101017.69
2023-05-19T14:00:18.966Z,101021.50
2023-05-19T14:02:46.279Z,101012.72
2023-05-19T14:05:13.539Z,101019.88
2023-05-19T14:07:41.289Z,101013.72
2023-05-19T14:10:09.309Z,101018.16
2023-05-19T14:12:49.388Z,101015.00
2023-05-19T14:15:23.702Z,101004.97
2023-05-19T14:17:50.848Z,101007.19
2023-05-19T14:20:17.997Z,101002.53
2023-05-19T14:22:44.914Z,101028.00
2023-05-19T14:25:11.948Z,101004.84
2023-05-19T14:27:40.081Z,101009.16
2023-05-19T14:30:08.439Z,101012.47
2023-05-19T14:32:35.931Z,101017.44
2023-05-19T14:35:03.080Z,101009.63
2023-05-19T14:37:31.717Z,101013.78
2023-05-19T14:39:59.142Z,101004.19
2023-05-19T14:42:26.196Z,101004.53
2023-05-19T14:44:53.136Z,100998.53
2023-05-19T14:47:20.118Z,101006.78
2023-05-19T14:49:47.082Z,100995.38
2023-05-19T14:52:13.996Z,100992.56
2023-05-19T14:54:40.902Z,101001.69
2023-05-19T14:57:08.100Z,101006.47
2023-05-19T14:59:38.107Z,100988.25
2023-05-19T15:02:05.501Z,101002.53
2023-05-19T15:04:32.464Z,100994.25
2023-05-19T15:07:09.791Z,100987.94
2023-05-19T15:09:38.123Z,100995.88
2023-05-19T15:12:05.190Z,100991.91
2023-05-19T15:14:32.057Z,100997.22
2023-05-19T15:16:59.380Z,100992.91
2023-05-19T15:19:26.626Z,100992.41
2023-05-19T15:21:53.997Z,100979.78
2023-05-19T15:24:21.029Z,100983.78
2023-05-19T15:26:48.075Z,100983.28
2023-05-19T15:29:14.959Z,100988.44
2023-05-19T15:31:42.036Z,100985.25
2023-05-19T15:34:09.107Z,100973.47
2023-05-19T15:36:35.993Z,100981.25
2023-05-19T15:39:03.702Z,100978.28
2023-05-19T15:41:30.729Z,100980.63
2023-05-19T15:43:59.999Z,100977.59
2023-05-19T15:46:26.970Z,100982.59
2023-05-19T15:48:56.026Z,100980.28
2023-05-19T15:51:22.910Z,100974.47
2023-05-19T15:53:49.863Z,100976.94
2023-05-19T15:56:16.847Z,100985.63
2023-05-19T15:58:43.798Z,100981.13
2023-05-19T16:01:10.973Z,100981.31
2023-05-19T16:03:38.315Z,100976.03
2023-05-19T16:06:05.315Z,100976.19
2023-05-19T16:08:32.316Z,100963.06
2023-05-19T16:10:59.265Z,100964.03
2023-05-19T16:13:26.357Z,100965.84
2023-05-19T16:15:53.250Z,100974.63
2023-05-19T16:18:20.664Z,100957.34
2023-05-19T16:20:47.563Z,100961.16
2023-05-19T16:23:14.417Z,100950.03
2023-05-19T16:25:41.485Z,100960.16
2023-05-19T16:28:08.530Z,100948.00
2023-05-19T16:30:35.675Z,100954.00
2023-05-19T16:33:02.895Z,100946.69
2023-05-19T16:35:30.029Z,100944.22
2023-05-19T16:37:57.032Z,100935.50
2023-05-19T16:40:24.421Z,100933.41
2023-05-19T16:42:53.623Z,100935.56
2023-05-19T16:45:20.644Z,100935.59
2023-05-19T16:47:47.943Z,100928.13
2023-05-19T16:50:14.971Z,100925.66
2023-05-19T16:52:42.051Z,100920.84
2023-05-19T16:55:09.414Z,100923.31
2023-05-19T16:57:36.326Z,100921.66
2023-05-19T17:00:03.740Z,100921.00
2023-05-19T17:02:31.042Z,100922.34
2023-05-19T17:04:58.040Z,100913.03
2023-05-19T17:07:25.029Z,100911.59
2023-05-19T17:09:53.973Z,100910.75
2023-05-19T17:12:22.154Z,100906.44
2023-05-19T17:14:50.421Z,100908.28
2023-05-19T17:17:18.003Z,100905.78
2023-05-19T17:19:44.941Z,100910.09
2023-05-19T17:22:11.815Z,100917.22
2023-05-19T17:24:38.700Z,100909.25
2023-05-19T17:27:05.717Z,100908.28
2023-05-19T17:29:32.622Z,100912.56
2023-05-19T17:31:59.543Z,100916.72
2023-05-19T17:34:26.533Z,100906.13
2023-05-19T17:36:53.401Z,100912.59
2023-05-19T17:39:20.453Z,100915.56
2023-05-19T17:41:47.315Z,100919.38
2023-05-19T17:44:14.883Z,100916.56
2023-05-19T17:46:41.865Z,100924.66
2023-05-19T17:49:10.547Z,100927.50
2023-05-19T17:51:37.974Z,100921.72
2023-05-19T17:54:05.461Z,100922.19
2023-05-19T17:56:34.366Z,100927.03
2023-05-19T17:59:11.264Z,100927.34
2023-05-19T18:01:41.335Z,100921.88
2023-05-19T18:04:09.303Z,100927.03
2023-05-19T18:06:43.557Z,100922.22
2023-05-19T18:09:11.256Z,100919.72
2023-05-19T18:11:41.292Z,100923.53
2023-05-19T18:14:08.298Z,100921.69
2023-05-19T18:16:35.252Z,100925.34
2023-05-19T18:19:03.211Z,100924.03
2023-05-19T18:21:40.058Z,100923.19
2023-05-19T18:24:07.145Z,100919.88
2023-05-19T18:26:34.223Z,100920.06
2023-05-19T18:29:05.033Z,100910.75
2023-05-19T18:31:45.900Z,100913.91
2023-05-19T18:34:13.933Z,100913.38
2023-05-19T18:36:41.533Z,100913.03
2023-05-19T18:39:08.423Z,100913.56
2023-05-19T18:41:37.436Z,100916.50
2023-05-19T18:44:06.247Z,100915.19
2023-05-19T18:46:36.309Z,100905.06
2023-05-19T18:49:04.192Z,100901.94
2023-05-19T18:51:36.115Z,100910.38
2023-05-19T18:54:03.216Z,100911.03
2023-05-19T18:56:35.557Z,100903.75
2023-05-19T18:59:06.193Z,100909.22
2023-05-19T19:01:33.310Z,100907.72
2023-05-19T19:04:03.673Z,100911.69
2023-05-19T19:06:31.284Z,100906.03
2023-05-19T19:08:58.266Z,100914.63
2023-05-19T19:11:27.962Z,100911.16
2023-05-19T19:13:56.640Z,100918.78
2023-05-19T19:16:23.632Z,100916.06
2023-05-19T19:18:59.488Z,100918.06
2023-05-19T19:21:28.061Z,100916.59
2023-05-19T19:23:55.293Z,100918.88
2023-05-19T19:26:29.236Z,100918.81
2023-05-19T19:28:56.927Z,100919.97
2023-05-19T19:31:26.043Z,100923.75
2023-05-19T19:33:53.333Z,100926.38
2023-05-19T19:36:20.411Z,100925.88
2023-05-19T19:38:47.256Z,100929.69
2023-05-19T19:41:16.706Z,100921.53
2023-05-19T19:43:43.941Z,100917.09
2023-05-19T19:46:13.889Z,100926.00
2023-05-19T19:48:41.232Z,100926.16
2023-05-19T19:51:11.275Z,100937.22
2023-05-19T19:53:41.233Z,100923.78
2023-05-19T19:56:10.680Z,100932.56
2023-05-19T19:58:37.537Z,100935.84
2023-05-19T20:01:08.439Z,100936.13
2023-05-19T20:03:35.825Z,100940.91
2023-05-19T20:06:05.845Z,100939.41
2023-05-19T20:08:32.756Z,100935.59
2023-05-19T20:10:59.740Z,100929.28
2023-05-19T20:13:26.972Z,100930.97
2023-05-19T20:15:53.894Z,100937.56
2023-05-19T20:18:24.725Z,100936.88
2023-05-19T20:20:51.781Z,100942.47
2023-05-19T20:23:18.754Z,100924.81
2023-05-19T20:26:02.476Z,100927.75
2023-05-19T20:28:33.156Z,100923.47
2023-05-19T20:31:00.023Z,100922.78
2023-05-19T20:33:26.902Z,100925.06
2023-05-19T20:35:53.753Z,100917.28
2023-05-19T20:38:20.681Z,100920.53
2023-05-19T20:40:47.958Z,100925.97
2023-05-19T20:43:14.935Z,100919.34
2023-05-19T20:45:44.984Z,100922.97
2023-05-19T20:48:12.236Z,100929.41
2023-05-19T20:50:39.871Z,100921.59
2023-05-19T20:53:07.382Z,100927.34
2023-05-19T20:55:36.144Z,100920.38
2023-05-19T20:58:03.216Z,100912.75
2023-05-19T21:00:30.708Z,100908.63
2023-05-19T21:02:58.096Z,100915.56
2023-05-19T21:05:25.216Z,100922.28
2023-05-19T21:07:52.147Z,100918.97
2023-05-19T21:10:19.119Z,100912.84
2023-05-19T21:12:46.625Z,100908.69
2023-05-19T21:15:13.678Z,100916.78
2023-05-19T21:17:40.868Z,100915.44
2023-05-19T21:20:08.749Z,100916.72
2023-05-19T21:22:35.998Z,100914.38
2023-05-19T21:25:03.660Z,100922.97
2023-05-19T21:27:32.798Z,100926.63
2023-05-19T21:29:59.988Z,100919.16
2023-05-19T21:32:27.785Z,100927.34
2023-05-19T21:34:54.795Z,100922.06
2023-05-19T21:37:22.277Z,100921.69
2023-05-19T21:39:49.262Z,100922.69
2023-05-19T21:42:16.263Z,100916.22
2023-05-19T21:44:43.174Z,100926.91
2023-05-19T21:47:10.113Z,100925.25
2023-05-19T21:49:38.297Z,100924.56
2023-05-19T21:52:08.606Z,100919.06
2023-05-19T21:54:36.085Z,100922.66
2023-05-19T21:57:03.053Z,100913.56
2023-05-19T21:59:30.481Z,100920.22
2023-05-19T22:01:57.517Z,100925.38
2023-05-19T22:04:24.456Z,100921.66
2023-05-19T22:06:51.377Z,100915.88
2023-05-19T22:09:18.829Z,100920.31
2023-05-19T22:11:46.221Z,100924.34
2023-05-19T22:14:14.040Z,100917.88
2023-05-19T22:16:41.046Z,100924.81
2023-05-19T22:19:08.106Z,100915.94
2023-05-19T22:21:35.043Z,100924.31
2023-05-19T22:24:02.204Z,100922.50
2023-05-19T22:26:29.119Z,100929.84
2023-05-19T22:28:56.497Z,100921.78
2023-05-19T22:31:23.469Z,100923.91
2023-05-19T22:33:50.571Z,100914.47
2023-05-19T22:36:17.639Z,100922.09
2023-05-19T22:38:44.565Z,100918.53
2023-05-19T22:41:11.596Z,100917.25
2023-05-19T22:43:38.551Z,100916.16
2023-05-19T22:46:05.883Z,100911.47
2023-05-19T22:48:32.864Z,100904.50
2023-05-19T22:50:59.903Z,100903.00
2023-05-19T22:53:26.889Z,100904.09
2023-05-19T22:55:53.831Z,100898.84
2023-05-19T22:58:20.774Z,100900.66
2023-05-19T23:00:47.717Z,100897.78
2023-05-19T23:03:14.639Z,100898.06
2023-05-19T23:05:41.566Z,100892.78
2023-05-19T23:08:08.662Z,100899.84
2023-05-19T23:10:35.618Z,100901.69
2023-05-19T23:13:02.518Z,100907.22
2023-05-19T23:15:29.505Z,100903.06
2023-05-19T23:17:56.426Z,100896.00
2023-05-19T23:20:23.401Z,100903.22
2023-05-19T23:22:50.374Z,100903.50
2023-05-19T23:25:17.312Z,100893.97
2023-05-19T23:27:44.373Z,100897.56
2023-05-19T23:30:11.664Z,100892.59
2023-05-19T23:32:38.667Z,100897.16
2023-05-19T23:35:18.247Z,100888.69
2023-05-19T23:37:45.225Z,100890.97
2023-05-19T23:40:12.548Z,100882.50
2023-05-19T23:42:39.758Z,100889.34
2023-05-19T23:45:07.642Z,100885.31
2023-05-19T23:47:34.725Z,100881.59
2023-05-19T23:50:01.639Z,100876.75
2023-05-19T23:52:28.671Z,100874.94
2023-05-19T23:54:55.570Z,100869.28
2023-05-19T23:57:22.544Z,100870.38
2023-05-19T23:59:49.506Z,100875.91
